createdAt,value
2018-09-26T00:00:22.645Z,3.12
2018-09-26T00:02:57.373Z,3.58
2018-09-26T00:05:27.077Z,2.92
2018-09-26T00:07:56.836Z,2.98
2018-09-26T00:10:26.471Z,3.10
2018-09-26T00:12:56.055Z,3.12
2018-09-26T00:15:25.701Z,3.30
2018-09-26T00:17:55.421Z,2.90
2018-09-26T00:20:25.219Z,3.20
2018-09-26T00:22:54.933Z,2.87
2018-09-26T00:25:24.804Z,3.27
2018-09-26T00:27:54.577Z,3.37
2018-09-26T00:30:24.367Z,2.80
2018-09-26T00:32:54.183Z,3.90
2018-09-26T00:35:24.151Z,2.80
2018-09-26T00:37:54.092Z,3.05
2018-09-26T00:40:23.782Z,3.35
2018-09-26T00:42:53.531Z,3.50
2018-09-26T00:45:23.331Z,3.35
2018-09-26T00:47:52.960Z,2.77
2018-09-26T00:50:22.639Z,2.87
2018-09-26T00:52:52.326Z,3.10
2018-09-26T00:55:22.089Z,3.90
2018-09-26T00:57:51.739Z,3.25
2018-09-26T01:00:21.505Z,3.20
2018-09-26T01:02:51.185Z,3.33
2018-09-26T01:05:20.932Z,3.40
2018-09-26T01:07:50.620Z,3.77
2018-09-26T01:10:20.420Z,3.60
2018-09-26T01:12:50.067Z,3.65
2018-09-26T01:15:19.929Z,3.62
2018-09-26T01:17:49.571Z,2.90
2018-09-26T01:20:19.372Z,3.92
2018-09-26T01:22:49.161Z,3.27
2018-09-26T01:25:18.810Z,3.65
2018-09-26T01:27:48.500Z,3.50
2018-09-26T01:30:18.224Z,3.02
2018-09-26T01:32:47.850Z,3.77
2018-09-26T01:35:17.709Z,3.45
2018-09-26T01:37:47.393Z,3.35
2018-09-26T01:40:17.081Z,3.80
2018-09-26T01:42:47.174Z,3.10
2018-09-26T01:45:16.868Z,3.30
2018-09-26T01:47:46.556Z,3.33
2018-09-26T01:50:16.296Z,3.40
2018-09-26T01:52:45.997Z,4.58
2018-09-26T01:55:15.642Z,3.42
2018-09-26T01:57:45.317Z,2.95
2018-09-26T02:00:15.114Z,3.42
2018-09-26T02:02:44.861Z,3.70
2018-09-26T02:05:14.632Z,3.58
2018-09-26T02:07:44.261Z,3.42
2018-09-26T02:10:13.880Z,3.40
2018-09-26T02:12:43.508Z,2.65
2018-09-26T02:15:13.115Z,3.37
2018-09-26T02:17:42.885Z,3.00
2018-09-26T02:20:12.632Z,3.08
2018-09-26T02:22:42.232Z,3.22
2018-09-26T02:25:12.005Z,3.25
2018-09-26T02:27:41.658Z,3.02
2018-09-26T02:30:11.483Z,3.45
2018-09-26T02:32:41.176Z,3.30
2018-09-26T02:35:10.952Z,3.33
2018-09-26T02:37:40.601Z,3.17
2018-09-26T02:40:10.295Z,3.75
2018-09-26T02:42:39.972Z,3.55
2018-09-26T02:45:09.526Z,3.10
2018-09-26T02:47:39.288Z,3.50
2018-09-26T02:50:08.950Z,3.12
2018-09-26T02:52:38.640Z,3.83
2018-09-26T02:55:08.367Z,3.17
2018-09-26T02:57:38.085Z,2.92
2018-09-26T03:00:07.943Z,3.58
2018-09-26T03:02:37.723Z,2.90
2018-09-26T03:05:07.671Z,3.65
2018-09-26T03:07:38.993Z,3.50
2018-09-26T03:10:10.727Z,3.65
2018-09-26T03:12:43.611Z,3.05
2018-09-26T03:15:13.319Z,3.77
2018-09-26T03:17:43.214Z,3.50
2018-09-26T03:20:12.890Z,3.20
2018-09-26T03:22:42.804Z,3.60
2018-09-26T03:25:12.570Z,3.60
2018-09-26T03:27:42.284Z,3.10
2018-09-26T03:30:12.137Z,3.40
2018-09-26T03:32:41.768Z,3.37
2018-09-26T03:35:11.560Z,2.80
2018-09-26T03:37:41.326Z,3.25
2018-09-26T03:40:11.080Z,3.58
2018-09-26T03:42:40.734Z,3.52
2018-09-26T03:45:10.600Z,3.55
2018-09-26T03:47:40.372Z,3.17
2018-09-26T03:50:10.152Z,4.05
2018-09-26T03:52:39.833Z,3.22
2018-09-26T03:55:09.563Z,2.83
2018-09-26T03:57:39.252Z,2.85
2018-09-26T04:00:09.111Z,3.20
2018-09-26T04:02:38.804Z,4.10
2018-09-26T04:05:08.590Z,3.15
2018-09-26T04:07:38.329Z,3.40
2018-09-26T04:10:08.133Z,3.52
2018-09-26T04:12:37.956Z,3.60
2018-09-26T04:15:07.890Z,3.45
2018-09-26T04:17:37.553Z,3.80
2018-09-26T04:20:07.608Z,3.27
2018-09-26T04:22:37.242Z,3.30
2018-09-26T04:25:07.188Z,2.92
2018-09-26T04:27:36.893Z,3.70
2018-09-26T04:30:07.172Z,3.47
2018-09-26T04:32:37.015Z,3.85
2018-09-26T04:35:06.891Z,3.87
2018-09-26T04:37:36.512Z,3.75
2018-09-26T04:40:06.373Z,3.52
2018-09-26T04:42:36.119Z,4.00
2018-09-26T04:45:06.006Z,4.80
2018-09-26T04:47:35.648Z,3.72
2018-09-26T04:50:05.328Z,3.02
2018-09-26T04:52:35.074Z,3.40
2018-09-26T04:55:04.848Z,3.22
2018-09-26T04:57:34.550Z,3.75
2018-09-26T05:00:04.311Z,2.90
2018-09-26T05:02:34.060Z,3.50
2018-09-26T05:05:03.716Z,3.40
2018-09-26T05:07:33.788Z,4.00
2018-09-26T05:10:03.735Z,3.50
2018-09-26T05:12:33.561Z,3.52
2018-09-26T05:15:03.260Z,3.15
2018-09-26T05:17:32.940Z,3.95
2018-09-26T05:20:02.663Z,3.52
2018-09-26T05:22:32.352Z,3.75
2018-09-26T05:25:02.016Z,3.25
2018-09-26T05:27:31.698Z,4.08
2018-09-26T05:30:01.428Z,3.87
2018-09-26T05:32:31.111Z,4.03
2018-09-26T05:35:00.907Z,3.45
2018-09-26T05:37:30.556Z,3.72
2018-09-26T05:40:00.224Z,4.40
2018-09-26T05:42:29.976Z,4.00
2018-09-26T05:44:59.557Z,3.83
2018-09-26T05:47:29.253Z,3.35
2018-09-26T05:49:58.899Z,3.50
2018-09-26T05:52:28.486Z,3.55
2018-09-26T05:54:58.181Z,3.75
2018-09-26T05:57:27.841Z,4.30
2018-09-26T05:59:57.599Z,3.30
2018-09-26T06:02:27.236Z,3.95
2018-09-26T06:04:56.838Z,4.47
2018-09-26T06:07:26.524Z,3.90
2018-09-26T06:09:56.164Z,3.72
2018-09-26T06:12:25.844Z,3.75
2018-09-26T06:14:55.399Z,3.35
2018-09-26T06:17:25.105Z,3.35
2018-09-26T06:19:54.780Z,3.35
2018-09-26T06:22:24.414Z,3.83
2018-09-26T06:24:54.113Z,3.72
2018-09-26T06:27:23.680Z,3.27
2018-09-26T06:29:53.341Z,3.25
2018-09-26T06:32:23.137Z,3.80
2018-09-26T06:34:52.759Z,2.75
2018-09-26T06:37:22.586Z,3.05
2018-09-26T06:39:52.458Z,3.70
2018-09-26T06:42:22.104Z,2.98
2018-09-26T06:44:51.698Z,3.37
2018-09-26T06:47:21.640Z,2.80
2018-09-26T06:49:51.325Z,3.87
2018-09-26T06:52:21.092Z,4.30
2018-09-26T06:54:50.744Z,3.60
2018-09-26T06:57:20.530Z,4.22
2018-09-26T06:59:50.175Z,3.83
2018-09-26T07:02:19.763Z,4.28
2018-09-26T07:04:49.539Z,3.97
2018-09-26T07:07:19.301Z,4.43
2018-09-26T07:09:49.000Z,4.13
2018-09-26T07:12:18.837Z,4.43
2018-09-26T07:14:48.501Z,4.00
2018-09-26T07:17:18.295Z,3.87
2018-09-26T07:19:48.048Z,3.40
2018-09-26T07:22:17.713Z,2.50
2018-09-26T07:24:47.360Z,3.30
2018-09-26T07:27:17.042Z,2.77
2018-09-26T07:29:46.752Z,2.10
2018-09-26T07:32:16.342Z,2.53
2018-09-26T07:34:45.891Z,3.37
2018-09-26T07:37:15.765Z,2.97
2018-09-26T07:39:45.520Z,3.07
2018-09-26T07:42:15.185Z,2.77
2018-09-26T07:44:44.996Z,3.03
2018-09-26T07:47:14.750Z,2.83
2018-09-26T07:49:44.520Z,2.83
2018-09-26T07:52:14.281Z,3.07
2018-09-26T07:54:43.977Z,3.80
2018-09-26T07:57:13.644Z,2.87
2018-09-26T07:59:43.301Z,4.27
2018-09-26T08:02:12.997Z,2.40
2018-09-26T08:04:42.716Z,2.80
2018-09-26T08:07:12.543Z,2.07
2018-09-26T08:09:42.547Z,2.57
2018-09-26T08:12:12.245Z,2.50
2018-09-26T08:14:41.920Z,2.20
2018-09-26T08:17:11.657Z,2.07
2018-09-26T08:19:41.181Z,2.00
2018-09-26T08:22:10.693Z,1.87
2018-09-26T08:24:40.369Z,2.10
2018-09-26T08:27:10.065Z,2.30
2018-09-26T08:29:39.868Z,2.07
2018-09-26T08:32:09.888Z,1.80
2018-09-26T08:34:39.524Z,2.10
2018-09-26T08:37:09.212Z,2.20
2018-09-26T08:39:38.748Z,1.80
2018-09-26T08:42:08.344Z,1.70
2018-09-26T08:44:38.027Z,1.40
2018-09-26T08:47:07.797Z,2.07
2018-09-26T08:49:37.452Z,1.47
2018-09-26T08:52:07.218Z,2.03
2018-09-26T08:54:37.008Z,1.63
2018-09-26T08:57:06.580Z,2.10
2018-09-26T08:59:36.260Z,1.60
2018-09-26T09:02:06.041Z,1.43
2018-09-26T09:04:35.714Z,1.80
2018-09-26T09:07:05.356Z,1.20
2018-09-26T09:09:35.071Z,1.50
2018-09-26T09:12:04.784Z,1.30
2018-09-26T09:14:34.568Z,1.07
2018-09-26T09:17:04.156Z,1.33
2018-09-26T09:19:33.814Z,1.50
2018-09-26T09:22:03.635Z,1.10
2018-09-26T09:24:33.349Z,1.77
2018-09-26T09:27:02.979Z,1.13
2018-09-26T09:29:32.725Z,1.53
2018-09-26T09:32:02.371Z,2.20
2018-09-26T09:34:32.065Z,2.20
2018-09-26T09:37:01.737Z,1.67
2018-09-26T09:39:31.394Z,1.70
2018-09-26T09:42:01.177Z,1.33
2018-09-26T09:44:30.903Z,1.73
2018-09-26T09:47:00.500Z,1.47
2018-09-26T09:49:30.179Z,1.40
2018-09-26T09:51:59.831Z,1.30
2018-09-26T09:54:29.455Z,1.23
2018-09-26T09:56:59.261Z,1.40
2018-09-26T09:59:28.961Z,1.27
2018-09-26T10:01:58.652Z,2.10
2018-09-26T10:04:28.132Z,1.50
2018-09-26T10:06:57.761Z,1.47
2018-09-26T10:09:27.535Z,1.90
2018-09-26T10:11:57.163Z,2.23
2018-09-26T10:14:26.765Z,2.63
2018-09-26T10:16:56.419Z,2.03
2018-09-26T10:19:25.981Z,1.80
2018-09-26T10:21:55.517Z,3.10
2018-09-26T10:24:24.920Z,3.00
2018-09-26T10:26:54.402Z,1.63
2018-09-26T10:29:23.996Z,1.80
2018-09-26T10:31:53.769Z,1.50
2018-09-26T10:34:23.101Z,1.70
2018-09-26T10:36:52.611Z,1.90
2018-09-26T10:39:22.153Z,1.47
2018-09-26T10:41:51.525Z,1.60
2018-09-26T10:44:21.066Z,1.20
2018-09-26T10:46:50.637Z,1.20
2018-09-26T10:49:20.172Z,1.60
2018-09-26T10:51:49.568Z,1.50
2018-09-26T10:54:19.064Z,1.73
2018-09-26T10:56:48.578Z,1.30
2018-09-26T10:59:18.088Z,1.30
2018-09-26T11:01:47.522Z,1.23
2018-09-26T11:04:17.132Z,1.40
2018-09-26T11:06:46.674Z,1.30
2018-09-26T11:09:16.317Z,1.20
2018-09-26T11:11:45.724Z,1.20
2018-09-26T11:14:15.244Z,1.43
2018-09-26T11:16:44.805Z,1.50
2018-09-26T11:19:14.355Z,1.10
2018-09-26T11:21:43.881Z,1.40
2018-09-26T11:24:13.512Z,1.67
2018-09-26T11:26:43.133Z,1.70
2018-09-26T11:29:12.632Z,1.63
2018-09-26T11:31:42.125Z,1.20
2018-09-26T11:34:11.779Z,3.43
2018-09-26T11:36:41.281Z,6.20
2018-09-26T11:39:13.285Z,20.97
2018-09-26T11:41:42.812Z,2.03
2018-09-26T11:44:12.292Z,1.70
2018-09-26T11:46:41.920Z,1.10
2018-09-26T11:49:11.431Z,1.67
2018-09-26T11:51:40.976Z,1.60
2018-09-26T11:54:10.431Z,1.67
2018-09-26T11:56:40.057Z,1.20
2018-09-26T11:59:09.448Z,1.83
2018-09-26T12:01:39.022Z,1.40
2018-09-26T12:04:08.647Z,1.43
2018-09-26T12:06:38.125Z,1.47
2018-09-26T12:09:08.600Z,1.10
2018-09-26T12:11:38.141Z,1.43
2018-09-26T12:14:07.811Z,1.40
2018-09-26T12:16:37.423Z,1.20
2018-09-26T12:19:07.041Z,1.10
2018-09-26T12:21:36.537Z,1.40
2018-09-26T12:24:06.191Z,1.30
2018-09-26T12:26:35.580Z,1.30
2018-09-26T12:29:05.084Z,1.10
2018-09-26T12:31:34.701Z,2.10
2018-09-26T12:34:04.264Z,1.20
2018-09-26T12:36:33.811Z,1.40
2018-09-26T12:39:03.291Z,1.30
2018-09-26T12:41:32.885Z,1.67
2018-09-26T12:44:02.492Z,1.33
2018-09-26T12:46:32.188Z,1.27
2018-09-26T12:49:01.612Z,1.13
2018-09-26T12:51:31.168Z,1.40
2018-09-26T12:54:00.680Z,0.90
2018-09-26T12:56:30.265Z,0.80
2018-09-26T12:58:59.673Z,1.20
2018-09-26T13:01:29.225Z,1.20
2018-09-26T13:03:58.767Z,1.43
2018-09-26T13:06:28.436Z,1.27
2018-09-26T13:08:57.945Z,1.27
2018-09-26T13:11:27.495Z,1.60
2018-09-26T13:13:56.933Z,1.10
2018-09-26T13:16:26.304Z,0.90
2018-09-26T13:18:55.928Z,1.03
2018-09-26T13:21:25.414Z,1.10
2018-09-26T13:23:54.870Z,1.77
2018-09-26T13:26:24.329Z,1.10
2018-09-26T13:28:53.908Z,1.20
2018-09-26T13:31:23.762Z,1.23
2018-09-26T13:33:53.421Z,1.20
2018-09-26T13:36:22.922Z,1.10
2018-09-26T13:38:52.450Z,1.10
2018-09-26T13:41:22.038Z,1.17
2018-09-26T13:43:51.566Z,1.10
2018-09-26T13:46:21.201Z,1.20
2018-09-26T13:48:50.640Z,0.93
2018-09-26T13:51:20.200Z,1.20
2018-09-26T13:53:49.689Z,1.33
2018-09-26T13:56:19.068Z,1.10
2018-09-26T13:58:48.550Z,1.17
2018-09-26T14:01:18.186Z,1.30
2018-09-26T14:03:47.744Z,1.10
2018-09-26T14:06:17.168Z,1.40
2018-09-26T14:08:46.785Z,1.17
2018-09-26T14:11:16.315Z,1.40
2018-09-26T14:13:45.832Z,1.17
2018-09-26T14:16:15.301Z,1.13
2018-09-26T14:18:44.945Z,1.40
2018-09-26T14:21:14.514Z,1.40
2018-09-26T14:23:44.069Z,1.23
2018-09-26T14:26:13.422Z,0.93
2018-09-26T14:28:43.028Z,0.93
2018-09-26T14:31:12.624Z,1.60
2018-09-26T14:33:42.180Z,1.33
2018-09-26T14:36:11.673Z,1.27
2018-09-26T14:38:41.312Z,1.13
2018-09-26T14:41:10.798Z,1.30
2018-09-26T14:43:40.364Z,1.07
2018-09-26T14:46:10.387Z,1.43
2018-09-26T14:48:39.917Z,1.70
2018-09-26T14:51:09.386Z,1.30
2018-09-26T14:53:39.014Z,1.30
2018-09-26T14:56:08.613Z,1.50
2018-09-26T14:58:38.170Z,1.90
2018-09-26T15:01:07.919Z,1.50
2018-09-26T15:03:37.432Z,1.30
2018-09-26T15:06:07.333Z,0.90
2018-09-26T15:08:36.980Z,1.07
2018-09-26T15:11:06.913Z,1.00
2018-09-26T15:13:36.719Z,1.47
2018-09-26T15:16:06.566Z,1.40
2018-09-26T15:18:36.207Z,1.00
2018-09-26T15:21:05.841Z,1.30
2018-09-26T15:23:36.022Z,1.30
2018-09-26T15:26:07.606Z,1.80
2018-09-26T15:28:37.547Z,1.67
2018-09-26T15:31:07.884Z,1.40
2018-09-26T15:33:38.407Z,1.33
2018-09-26T15:36:08.568Z,1.30
2018-09-26T15:38:38.277Z,1.47
2018-09-26T15:41:07.925Z,1.30
2018-09-26T15:43:37.591Z,1.20
2018-09-26T15:46:07.212Z,1.40
2018-09-26T15:48:36.773Z,1.23
2018-09-26T15:51:06.504Z,1.57
2018-09-26T15:53:36.160Z,2.00
2018-09-26T15:56:05.766Z,1.97
2018-09-26T15:58:35.424Z,1.60
2018-09-26T16:01:05.149Z,1.40
2018-09-26T16:03:34.768Z,2.30
2018-09-26T16:06:04.304Z,2.73
2018-09-26T16:08:33.946Z,2.57
2018-09-26T16:11:03.521Z,2.20
2018-09-26T16:13:33.116Z,3.57
2018-09-26T16:16:02.744Z,2.40
2018-09-26T16:18:32.085Z,2.30
2018-09-26T16:21:01.672Z,2.10
2018-09-26T16:23:31.199Z,2.50
2018-09-26T16:26:00.667Z,1.90
2018-09-26T16:28:30.252Z,1.73
2018-09-26T16:30:59.635Z,3.50
2018-09-26T16:33:28.897Z,4.20
2018-09-26T16:35:58.163Z,3.70
2018-09-26T16:38:27.438Z,4.23
2018-09-26T16:40:56.705Z,3.27
2018-09-26T16:43:25.972Z,3.30
2018-09-26T16:45:55.256Z,3.10
2018-09-26T16:48:24.569Z,3.30
2018-09-26T16:50:53.850Z,3.00
2018-09-26T16:53:23.123Z,3.07
2018-09-26T16:55:52.421Z,3.63
2018-09-26T16:58:21.780Z,2.90
2018-09-26T17:00:51.041Z,3.03
2018-09-26T17:03:20.582Z,2.60
2018-09-26T17:05:50.206Z,2.67
2018-09-26T17:08:20.019Z,3.00
2018-09-26T17:10:49.434Z,3.30
2018-09-26T17:13:19.029Z,2.97
2018-09-26T17:15:48.644Z,3.30
2018-09-26T17:18:18.849Z,3.10
2018-09-26T17:20:48.512Z,2.20
2018-09-26T17:23:17.829Z,1.70
2018-09-26T17:25:47.125Z,2.00
2018-09-26T17:28:16.916Z,3.27
2018-09-26T17:30:46.578Z,5.23
2018-09-26T17:33:16.448Z,4.10
2018-09-26T17:35:46.881Z,2.70
2018-09-26T17:38:16.728Z,2.33
2018-09-26T17:40:46.181Z,2.20
2018-09-26T17:43:15.829Z,1.90
2018-09-26T17:45:45.069Z,2.10
2018-09-26T17:51:00.903Z,1.73
2018-09-26T17:53:30.465Z,1.77
2018-09-26T17:56:08.707Z,2.90
2018-09-26T17:58:38.642Z,3.90
2018-09-26T18:01:08.039Z,3.90
2018-09-26T18:03:37.968Z,6.00
2018-09-26T18:06:06.958Z,6.87
2018-09-26T18:08:36.301Z,5.80
2018-09-26T18:11:05.569Z,4.67
2018-09-26T18:13:34.855Z,4.47
2018-09-26T18:16:04.125Z,4.20
2018-09-26T18:18:33.412Z,3.57
2018-09-26T18:21:02.698Z,3.80
2018-09-26T18:23:31.971Z,3.70
2018-09-26T18:26:01.552Z,3.90
2018-09-26T18:28:31.189Z,3.87
2018-09-26T18:31:00.471Z,3.60
2018-09-26T18:33:30.271Z,3.30
2018-09-26T18:35:59.542Z,3.30
2018-09-26T18:38:28.813Z,4.10
2018-09-26T18:40:58.376Z,3.40
2018-09-26T18:43:27.664Z,3.20
2018-09-26T18:45:56.917Z,3.47
2018-09-26T18:48:26.381Z,2.80
2018-09-26T18:50:56.038Z,2.77
2018-09-26T18:53:25.406Z,3.07
2018-09-26T18:55:54.988Z,3.03
2018-09-26T18:58:24.286Z,3.13
2018-09-26T19:00:53.565Z,2.53
2018-09-26T19:03:22.914Z,2.97
2018-09-26T19:05:52.200Z,2.47
2018-09-26T19:08:21.492Z,2.50
2018-09-26T19:10:50.781Z,2.60
2018-09-26T19:13:20.053Z,2.57
2018-09-26T19:15:49.701Z,3.27
2018-09-26T19:18:19.008Z,2.40
2018-09-26T19:20:48.285Z,3.83
2018-09-26T19:23:17.557Z,7.57
2018-09-26T19:25:47.798Z,6.87
2018-09-26T19:28:17.124Z,6.80
2018-09-26T19:30:46.400Z,6.90
2018-09-26T19:33:16.321Z,4.07
2018-09-26T19:35:45.604Z,3.30
2018-09-26T19:38:15.047Z,3.67
2018-09-26T19:40:44.389Z,3.23
2018-09-26T19:43:13.729Z,3.23
2018-09-26T19:45:43.135Z,2.90
2018-09-26T19:48:12.636Z,2.50
2018-09-26T19:50:41.928Z,2.90
2018-09-26T19:53:11.217Z,2.90
2018-09-26T19:55:40.516Z,2.40
2018-09-26T19:58:09.833Z,2.57
2018-09-26T20:00:39.113Z,3.00
2018-09-26T20:03:08.389Z,2.80
2018-09-26T20:05:37.711Z,2.53
2018-09-26T20:08:07.138Z,2.67
2018-09-26T20:10:36.422Z,2.83
2018-09-26T20:13:05.779Z,3.47
2018-09-26T20:15:35.047Z,2.87
2018-09-26T20:18:04.337Z,3.17
2018-09-26T20:20:33.812Z,2.83
2018-09-26T20:23:03.366Z,3.20
2018-09-26T20:25:33.228Z,3.60
2018-09-26T20:28:02.948Z,2.70
2018-09-26T20:30:32.810Z,3.07
2018-09-26T20:33:02.448Z,2.80
2018-09-26T20:35:32.171Z,3.10
2018-09-26T20:38:01.664Z,3.50
2018-09-26T20:40:31.164Z,2.47
2018-09-26T20:43:00.637Z,2.90
2018-09-26T20:45:30.269Z,3.30
2018-09-26T20:47:59.776Z,2.90
2018-09-26T20:50:29.240Z,2.87
2018-09-26T20:52:58.858Z,3.00
2018-09-26T20:55:28.412Z,2.90
2018-09-26T20:57:57.930Z,2.90
2018-09-26T21:00:27.533Z,2.97
2018-09-26T21:02:57.117Z,2.90
2018-09-26T21:05:26.578Z,3.27
2018-09-26T21:07:56.197Z,3.27
2018-09-26T21:10:25.772Z,3.10
2018-09-26T21:12:55.339Z,3.27
2018-09-26T21:15:24.908Z,3.30
2018-09-26T21:17:54.514Z,2.97
2018-09-26T21:20:24.058Z,3.40
2018-09-26T21:22:53.735Z,3.30
2018-09-26T21:25:23.275Z,2.80
2018-09-26T21:27:52.794Z,3.10
2018-09-26T21:30:22.233Z,3.10
2018-09-26T21:32:51.851Z,2.40
2018-09-26T21:35:21.413Z,2.73
2018-09-26T21:37:50.905Z,2.80
2018-09-26T21:40:20.483Z,2.90
2018-09-26T21:42:50.089Z,2.50
2018-09-26T21:45:19.521Z,2.90
2018-09-26T21:47:49.056Z,2.90
2018-09-26T21:50:18.697Z,3.23
2018-09-26T21:52:48.259Z,3.57
2018-09-26T21:55:17.712Z,3.10
2018-09-26T21:57:47.316Z,2.90
2018-09-26T22:00:16.959Z,2.90
2018-09-26T22:02:46.624Z,3.10
2018-09-26T22:05:16.140Z,3.67
2018-09-26T22:07:45.568Z,3.50
2018-09-26T22:10:15.084Z,2.80
2018-09-26T22:12:44.650Z,2.70
2018-09-26T22:15:22.929Z,2.87
2018-09-26T22:17:53.693Z,2.87
2018-09-26T22:20:23.296Z,3.00
2018-09-26T22:22:52.920Z,3.30
2018-09-26T22:25:22.452Z,3.00
2018-09-26T22:27:51.857Z,2.33
2018-09-26T22:30:21.317Z,3.50
2018-09-26T22:32:50.980Z,3.40
2018-09-26T22:35:20.477Z,2.70
2018-09-26T22:37:50.024Z,2.53
2018-09-26T22:40:19.651Z,3.13
2018-09-26T22:42:49.187Z,3.00
2018-09-26T22:45:18.649Z,2.70
2018-09-26T22:47:48.277Z,3.30
2018-09-26T22:50:17.816Z,3.17
2018-09-26T22:52:47.312Z,2.67
2018-09-26T22:55:16.895Z,3.23
2018-09-26T22:57:46.447Z,2.50
2018-09-26T23:00:15.934Z,2.87
2018-09-26T23:02:45.407Z,2.20
2018-09-26T23:05:14.908Z,3.20
2018-09-26T23:07:44.371Z,2.10
2018-09-26T23:10:13.811Z,2.50
2018-09-26T23:12:43.537Z,2.60
2018-09-26T23:15:13.072Z,2.50
2018-09-26T23:17:42.580Z,2.60
2018-09-26T23:20:12.044Z,3.37
2018-09-26T23:22:41.653Z,2.53
2018-09-26T23:25:11.282Z,3.37
2018-09-26T23:27:40.872Z,3.03
2018-09-26T23:30:10.368Z,2.70
2018-09-26T23:32:39.908Z,3.10
2018-09-26T23:35:09.373Z,3.30
2018-09-26T23:37:38.992Z,2.80
2018-09-26T23:40:08.516Z,3.03
2018-09-26T23:42:38.064Z,2.93
2018-09-26T23:45:07.720Z,2.77
2018-09-26T23:47:37.240Z,2.63
2018-09-26T23:50:06.900Z,3.30
2018-09-26T23:52:36.531Z,3.50
2018-09-26T23:55:06.185Z,2.80
2018-09-26T23:57:35.748Z,3.10
